ICE78A EDDF-BIKF
Flight info
| Callsign | ICE78A |
|---|---|
| Flight time | N/A |
| Altitude | 36000 |
| Route | OBOKA2E OBOKA Z28 DIBIR DCT BUDIP DCT GODOS DCT BALIX/M075F360 DCT BREKI DCT BASLU BASLU3K |
| Aircraft | B738/M-SDE2E3FGHIRWXY/LB1 |
Departure
| Time | N/A |
|---|---|
| Airport | Frankfurt Main Airport (EDDF) |
Arrival
| Time | 2026-04-30 11:33 |
|---|---|
| Airport | Keflavik International Airport (BIKF) |
| Time | Latitude | Longitude | Altitude | Speed | Heading |
|---|---|---|---|---|---|
| 2026-04-30 11:02 | 62.50003 | -19.41885 | 36032 ft | 438 kts | 297° |
| 2026-04-30 11:03 | 62.53299 | -19.52865 | 36029 ft | 437 kts | 298° |
| 2026-04-30 11:03 | 62.55078 | -19.58257 | 35585 ft | 444 kts | 303° |
| 2026-04-30 11:04 | 62.59048 | -19.68464 | 34663 ft | 439 kts | 305° |
| 2026-04-30 11:04 | 62.61048 | -19.73443 | 34211 ft | 436 kts | 304° |
| 2026-04-30 11:04 | 62.63031 | -19.78417 | 33713 ft | 435 kts | 304° |
| 2026-04-30 11:04 | 62.64994 | -19.83400 | 33259 ft | 433 kts | 304° |
| 2026-04-30 11:05 | 62.66939 | -19.88389 | 32737 ft | 432 kts | 304° |
| 2026-04-30 11:05 | 62.68871 | -19.93382 | 32231 ft | 431 kts | 304° |
| 2026-04-30 11:05 | 62.70805 | -19.98409 | 31731 ft | 435 kts | 304° |
| 2026-04-30 11:05 | 62.72753 | -20.03500 | 31240 ft | 439 kts | 304° |
| 2026-04-30 11:06 | 62.74697 | -20.08579 | 30751 ft | 432 kts | 304° |
| 2026-04-30 11:06 | 62.76613 | -20.13587 | 30273 ft | 427 kts | 304° |
| 2026-04-30 11:06 | 62.78507 | -20.18552 | 29741 ft | 422 kts | 303° |
| 2026-04-30 11:06 | 62.80375 | -20.23460 | 29160 ft | 418 kts | 303° |
| 2026-04-30 11:07 | 62.82220 | -20.28321 | 28594 ft | 413 kts | 303° |
| 2026-04-30 11:07 | 62.84041 | -20.33132 | 28062 ft | 409 kts | 303° |
| 2026-04-30 11:07 | 62.85845 | -20.37908 | 27528 ft | 405 kts | 303° |
| 2026-04-30 11:07 | 62.87625 | -20.42631 | 27056 ft | 399 kts | 303° |
| 2026-04-30 11:08 | 62.89363 | -20.47251 | 26656 ft | 395 kts | 303° |
| 2026-04-30 11:08 | 62.91099 | -20.51875 | 26187 ft | 390 kts | 303° |
| 2026-04-30 11:08 | 62.92814 | -20.56454 | 25726 ft | 386 kts | 303° |
| 2026-04-30 11:08 | 62.94508 | -20.60986 | 25322 ft | 382 kts | 303° |
| 2026-04-30 11:09 | 62.96182 | -20.65472 | 24902 ft | 377 kts | 303° |
| 2026-04-30 11:09 | 62.97833 | -20.69908 | 24493 ft | 372 kts | 304° |
| 2026-04-30 11:09 | 62.99461 | -20.74289 | 24081 ft | 367 kts | 304° |
| 2026-04-30 11:09 | 63.01067 | -20.78620 | 23683 ft | 363 kts | 304° |
| 2026-04-30 11:10 | 63.02655 | -20.82908 | 23224 ft | 359 kts | 304° |
| 2026-04-30 11:10 | 63.04223 | -20.87154 | 22751 ft | 355 kts | 304° |
| 2026-04-30 11:10 | 63.05772 | -20.91356 | 22272 ft | 351 kts | 303° |
| 2026-04-30 11:10 | 63.07306 | -20.95523 | 21799 ft | 348 kts | 303° |
| 2026-04-30 11:11 | 63.08826 | -20.99661 | 21340 ft | 345 kts | 303° |
| 2026-04-30 11:11 | 63.10333 | -21.03772 | 20901 ft | 343 kts | 303° |
| 2026-04-30 11:11 | 63.11822 | -21.07840 | 20552 ft | 338 kts | 303° |
| 2026-04-30 11:11 | 63.13292 | -21.11863 | 20190 ft | 335 kts | 303° |
| 2026-04-30 11:12 | 63.14759 | -21.15885 | 19842 ft | 337 kts | 303° |
| 2026-04-30 11:12 | 63.16216 | -21.19891 | 19487 ft | 340 kts | 303° |
| 2026-04-30 11:12 | 63.17719 | -21.24027 | 19135 ft | 341 kts | 303° |
| 2026-04-30 11:12 | 63.19382 | -21.27724 | 18766 ft | 349 kts | 319° |
| 2026-04-30 11:13 | 63.21519 | -21.30361 | 18458 ft | 352 kts | 326° |
| 2026-04-30 11:13 | 63.23715 | -21.32766 | 18098 ft | 352 kts | 327° |
| 2026-04-30 11:13 | 63.25912 | -21.35136 | 17703 ft | 350 kts | 327° |
| 2026-04-30 11:13 | 63.28098 | -21.37504 | 17317 ft | 349 kts | 327° |
| 2026-04-30 11:14 | 63.30272 | -21.39880 | 16937 ft | 347 kts | 327° |
| 2026-04-30 11:14 | 63.32432 | -21.42260 | 16588 ft | 345 kts | 327° |
| 2026-04-30 11:14 | 63.34577 | -21.44638 | 16241 ft | 343 kts | 327° |
| 2026-04-30 11:14 | 63.36709 | -21.47013 | 15943 ft | 342 kts | 327° |
| 2026-04-30 11:15 | 63.38825 | -21.49377 | 15610 ft | 339 kts | 326° |
| 2026-04-30 11:15 | 63.40926 | -21.51730 | 15275 ft | 337 kts | 326° |
| 2026-04-30 11:15 | 63.43012 | -21.54071 | 14947 ft | 334 kts | 326° |
| 2026-04-30 11:15 | 63.45084 | -21.56401 | 14613 ft | 332 kts | 326° |
| 2026-04-30 11:16 | 63.47144 | -21.58722 | 14291 ft | 330 kts | 326° |
| 2026-04-30 11:16 | 63.49192 | -21.61033 | 13957 ft | 329 kts | 326° |
| 2026-04-30 11:16 | 63.51234 | -21.63342 | 13622 ft | 327 kts | 326° |
| 2026-04-30 11:16 | 63.53263 | -21.65641 | 13261 ft | 326 kts | 326° |
| 2026-04-30 11:17 | 63.55281 | -21.67929 | 12907 ft | 325 kts | 326° |
| 2026-04-30 11:17 | 63.57295 | -21.70217 | 12554 ft | 324 kts | 326° |
| 2026-04-30 11:17 | 63.59302 | -21.72498 | 12205 ft | 322 kts | 326° |
| 2026-04-30 11:17 | 63.61280 | -21.74747 | 11879 ft | 316 kts | 326° |
| 2026-04-30 11:18 | 63.63224 | -21.76962 | 11556 ft | 311 kts | 326° |
| 2026-04-30 11:18 | 63.67017 | -21.81313 | 11009 ft | 300 kts | 326° |
| 2026-04-30 11:18 | 63.68861 | -21.83434 | 10746 ft | 295 kts | 326° |
| 2026-04-30 11:19 | 63.70675 | -21.85523 | 10475 ft | 290 kts | 326° |
| 2026-04-30 11:19 | 63.72461 | -21.87582 | 10229 ft | 286 kts | 326° |
| 2026-04-30 11:19 | 63.74223 | -21.89616 | 9987 ft | 283 kts | 326° |
| 2026-04-30 11:19 | 63.75966 | -21.91631 | 9721 ft | 280 kts | 326° |
| 2026-04-30 11:20 | 63.77693 | -21.93627 | 9432 ft | 277 kts | 326° |
| 2026-04-30 11:20 | 63.79399 | -21.95600 | 9155 ft | 274 kts | 326° |
| 2026-04-30 11:20 | 63.81087 | -21.97556 | 8885 ft | 270 kts | 326° |
| 2026-04-30 11:20 | 63.82733 | -21.99459 | 8638 ft | 260 kts | 326° |
| 2026-04-30 11:21 | 63.84315 | -22.01294 | 8403 ft | 252 kts | 326° |
| 2026-04-30 11:21 | 63.85826 | -22.03048 | 8169 ft | 241 kts | 326° |
| 2026-04-30 11:21 | 63.87269 | -22.04723 | 7923 ft | 226 kts | 326° |
| 2026-04-30 11:21 | 63.88637 | -22.06315 | 7680 ft | 214 kts | 326° |
| 2026-04-30 11:22 | 63.89927 | -22.07821 | 7445 ft | 204 kts | 325° |
| 2026-04-30 11:22 | 63.91159 | -22.09262 | 7225 ft | 196 kts | 325° |
| 2026-04-30 11:22 | 63.92365 | -22.10677 | 7006 ft | 195 kts | 325° |
| 2026-04-30 11:22 | 63.93574 | -22.12099 | 6838 ft | 196 kts | 325° |
| 2026-04-30 11:23 | 63.94783 | -22.13520 | 6632 ft | 196 kts | 325° |
| 2026-04-30 11:23 | 63.95993 | -22.14940 | 6430 ft | 196 kts | 325° |
| 2026-04-30 11:23 | 63.98411 | -22.17781 | 6006 ft | 196 kts | 325° |
| 2026-04-30 11:24 | 63.99619 | -22.19202 | 5783 ft | 195 kts | 325° |
| 2026-04-30 11:24 | 64.00822 | -22.20619 | 5575 ft | 195 kts | 325° |
| 2026-04-30 11:24 | 64.02023 | -22.22035 | 5373 ft | 194 kts | 325° |
| 2026-04-30 11:25 | 64.04405 | -22.24844 | 5003 ft | 192 kts | 326° |
| 2026-04-30 11:25 | 64.05590 | -22.26244 | 4827 ft | 191 kts | 325° |
| 2026-04-30 11:25 | 64.07943 | -22.29030 | 4439 ft | 190 kts | 325° |
| 2026-04-30 11:26 | 64.10198 | -22.32021 | 4056 ft | 184 kts | 315° |
| 2026-04-30 11:26 | 64.11216 | -22.33798 | 3873 ft | 184 kts | 315° |
| 2026-04-30 11:26 | 64.12230 | -22.35571 | 3685 ft | 183 kts | 315° |
| 2026-04-30 11:27 | 64.13246 | -22.37341 | 3506 ft | 184 kts | 315° |
| 2026-04-30 11:27 | 64.14266 | -22.39110 | 3323 ft | 184 kts | 315° |
| 2026-04-30 11:27 | 64.15279 | -22.40884 | 3159 ft | 181 kts | 311° |
| 2026-04-30 11:27 | 64.15891 | -22.43192 | 2975 ft | 165 kts | 273° |
| 2026-04-30 11:28 | 64.15404 | -22.48125 | 2693 ft | 162 kts | 248° |
| 2026-04-30 11:28 | 64.15032 | -22.50535 | 2577 ft | 159 kts | 248° |
| 2026-04-30 11:28 | 64.14662 | -22.52909 | 2484 ft | 157 kts | 248° |
| 2026-04-30 11:29 | 64.14291 | -22.55264 | 2382 ft | 157 kts | 248° |
| 2026-04-30 11:29 | 64.13920 | -22.57640 | 2258 ft | 159 kts | 248° |
| 2026-04-30 11:29 | 64.12231 | -22.60486 | 2003 ft | 165 kts | 190° |
| 2026-04-30 11:30 | 64.09935 | -22.60499 | 1831 ft | 164 kts | 187° |
| 2026-04-30 11:30 | 64.08784 | -22.60508 | 1737 ft | 166 kts | 188° |
| 2026-04-30 11:30 | 64.07629 | -22.60514 | 1617 ft | 166 kts | 187° |
| 2026-04-30 11:31 | 64.06490 | -22.60520 | 1503 ft | 158 kts | 188° |
| 2026-04-30 11:31 | 64.05463 | -22.60515 | 1419 ft | 137 kts | 189° |
| 2026-04-30 11:31 | 64.04562 | -22.60520 | 1297 ft | 128 kts | 189° |
| 2026-04-30 11:31 | 64.03688 | -22.60528 | 1136 ft | 126 kts | 190° |
| 2026-04-30 11:32 | 64.02803 | -22.60531 | 949 ft | 126 kts | 189° |
| 2026-04-30 11:32 | 64.01948 | -22.60522 | 780 ft | 122 kts | 189° |
| 2026-04-30 11:32 | 64.01106 | -22.60477 | 615 ft | 119 kts | 189° |
| 2026-04-30 11:33 | 63.99469 | -22.60528 | 281 ft | 114 kts | 189° |
| 2026-04-30 11:33 | 63.98706 | -22.60540 | 185 ft | 106 kts | 191° |
| 2026-04-30 11:33 | 63.98093 | -22.60550 | 170 ft | 61 kts | 179° |
| 2026-04-30 11:33 | 63.97804 | -22.60542 | 171 ft | 34 kts | 180° |
| 2026-04-30 11:34 | 63.97584 | -22.60541 | 173 ft | 25 kts | 179° |
| 2026-04-30 11:34 | 63.97453 | -22.60591 | 171 ft | 17 kts | 227° |
| 2026-04-30 11:34 | 63.97451 | -22.60850 | 166 ft | 18 kts | 286° |
| 2026-04-30 11:34 | 63.97554 | -22.60941 | 166 ft | 17 kts | 0° |
| 2026-04-30 11:35 | 63.97674 | -22.60940 | 168 ft | 17 kts | 0° |
| 2026-04-30 11:35 | 63.97786 | -22.60940 | 169 ft | 16 kts | 0° |
| 2026-04-30 11:35 | 63.97907 | -22.60940 | 168 ft | 19 kts | 360° |
| 2026-04-30 11:35 | 63.98050 | -22.60939 | 167 ft | 21 kts | 0° |
| 2026-04-30 11:36 | 63.98202 | -22.60940 | 164 ft | 22 kts | 0° |
| 2026-04-30 11:36 | 63.98351 | -22.60941 | 165 ft | 21 kts | 0° |
| 2026-04-30 11:36 | 63.98496 | -22.60938 | 168 ft | 21 kts | 0° |
| 2026-04-30 11:36 | 63.98638 | -22.60939 | 165 ft | 20 kts | 0° |
| 2026-04-30 11:37 | 63.98774 | -22.60939 | 164 ft | 19 kts | 0° |
| 2026-04-30 11:37 | 63.98907 | -22.60938 | 168 ft | 19 kts | 0° |
| 2026-04-30 11:37 | 63.99035 | -22.60938 | 168 ft | 19 kts | 0° |
| 2026-04-30 11:37 | 63.99136 | -22.60941 | 163 ft | 11 kts | 351° |
| 2026-04-30 11:38 | 63.99174 | -22.61097 | 159 ft | 14 kts | 268° |
| 2026-04-30 11:38 | 63.99174 | -22.61342 | 153 ft | 17 kts | 270° |
| 2026-04-30 11:38 | 63.99173 | -22.61628 | 147 ft | 19 kts | 270° |
| 2026-04-30 11:38 | 63.99173 | -22.61874 | 142 ft | 12 kts | 269° |
| 2026-04-30 11:39 | 63.99222 | -22.61990 | 141 ft | 12 kts | 6° |
| 2026-04-30 11:39 | 63.99306 | -22.61986 | 141 ft | 12 kts | 359° |
| 2026-04-30 11:39 | 63.99373 | -22.61987 | 141 ft | 8 kts | 357° |
| 2026-04-30 11:39 | 63.99415 | -22.62035 | 141 ft | 6 kts | 289° |
| 2026-04-30 11:40 | 63.99400 | -22.62120 | 141 ft | 6 kts | 238° |
| 2026-04-30 11:40 | 63.99386 | -22.62172 | 141 ft | 3 kts | 238° |
| 2026-04-30 11:40 | 63.99379 | -22.62195 | 141 ft | 1 kts | 237° |
| 2026-04-30 11:40 | 63.99379 | -22.62196 | 141 ft | 0 kts | 237° |